.
WxDataArchive / Data Records for 2009-04-23
2009-04-22 April 2009 2009-04-24

Data Records for Thursday, 23 April 2009

Time	Temp	Chill	HIndex	Humid	Dewpt	 Wind 	HiWind	WindDir	Rain 	Barom 
-----	----	-----	------	-----	-----	------	------	-------	-----	----- 
00:00	43.2	43.2	43.2	53	27.2	0	0	---	0.00	30.002 
00:05	42.8	42.8	42.8	54	27.3	0	0	---	0.00	30.002 
00:10	42.5	42.5	42.5	54	27.0	0	0	---	0.00	30.002 
00:15	42.2	42.2	42.2	55	27.2	0	0	---	0.00	30.002 
00:20	42.1	42.1	42.1	55	27.1	0	1	248	0.00	30.002 
00:25	42.1	42.1	42.1	55	27.1	0	0	---	0.00	30.002 
00:30	42.1	42.1	42.1	55	27.1	0	0	---	0.00	30.008 
00:35	41.9	41.9	41.9	55	26.9	0	0	---	0.00	30.008 
00:40	41.8	41.8	41.8	55	26.8	0	0	---	0.00	30.008 
00:45	41.6	41.6	41.6	56	27.1	0	0	---	0.00	30.009 
00:50	41.5	41.5	41.5	56	27.0	0	1	248	0.00	30.009 
00:55	41.2	41.2	41.2	57	27.1	0	0	---	0.00	30.009 
01:00	41.1	41.1	41.1	57	27.0	0	0	---	0.00	30.019 
01:05	41.1	41.1	41.1	57	27.0	0	0	---	0.00	30.019 
01:10	40.9	40.9	40.9	57	26.9	0	0	---	0.00	30.019 
01:15	40.9	40.9	40.9	57	26.9	0	0	---	0.00	30.023 
01:20	40.8	40.8	40.8	57	26.8	0	0	---	0.00	30.023 
01:25	40.6	40.6	40.6	57	26.6	0	0	---	0.00	30.023 
01:30	40.5	40.5	40.5	58	26.9	0	0	---	0.00	30.026 
01:35	40.2	40.2	40.2	58	26.6	0	0	---	0.00	30.026 
01:40	40.1	40.1	40.1	59	26.9	0	0	---	0.00	30.026 
01:45	39.6	39.6	39.6	60	26.9	0	0	---	0.00	30.031 
01:50	39.3	39.3	39.3	61	27.0	0	0	---	0.00	30.031 
01:55	39.1	39.1	39.1	62	27.2	0	0	---	0.00	30.031 
02:00	38.8	38.8	38.8	62	26.9	0	0	---	0.00	30.037 
02:05	38.6	38.6	38.6	62	26.7	0	0	---	0.00	30.037 
02:10	38.5	38.5	38.5	63	27.0	0	0	---	0.00	30.037 
02:15	38.5	38.5	38.5	63	27.0	0	0	---	0.00	30.040 
02:20	38.3	38.3	38.3	64	27.2	0	0	---	0.00	30.040 
02:25	38.2	38.2	38.2	64	27.1	0	0	---	0.00	30.040 
02:30	37.9	37.9	37.9	64	26.8	0	0	---	0.00	30.043 
02:35	37.8	37.8	37.8	65	27.1	0	0	---	0.00	30.043 
02:40	37.5	37.5	37.5	66	27.2	0	0	---	0.00	30.043 
02:45	37.2	37.2	37.2	67	27.3	0	0	---	0.00	30.047 
02:50	36.9	36.9	36.9	67	27.0	0	0	---	0.00	30.047 
02:55	36.8	36.8	36.8	68	27.2	0	0	---	0.00	30.047 
03:00	36.5	36.5	36.5	69	27.3	0	0	---	0.00	30.049 
03:05	36.3	36.3	36.3	69	27.1	0	0	---	0.00	30.049 
03:10	36.3	36.3	36.3	69	27.1	0	0	---	0.00	30.049 
03:15	36.2	36.2	36.2	70	27.4	0	0	---	0.00	30.050 
03:20	36.2	36.2	36.2	70	27.4	0	0	---	0.00	30.050 
03:25	36.0	36.0	36.0	70	27.2	0	0	---	0.00	30.050 
03:30	35.9	35.9	35.9	70	27.1	0	0	---	0.00	30.053 
03:35	35.9	35.9	35.9	70	27.1	0	0	---	0.00	30.053 
03:40	35.8	35.8	35.8	70	27.0	0	0	---	0.00	30.053 
03:45	35.6	35.6	35.6	71	27.1	0	0	---	0.00	30.057 
03:50	35.6	35.6	35.6	71	27.1	0	0	---	0.00	30.057 
03:55	35.6	35.6	35.6	72	27.5	0	0	---	0.00	30.057 
04:00	35.3	35.3	35.3	72	27.2	0	0	---	0.00	30.059 
04:05	35.0	35.0	35.0	73	27.2	0	0	---	0.00	30.059 
04:10	34.9	34.9	34.9	73	27.1	0	0	---	0.00	30.059 
04:15	34.6	34.6	34.6	73	26.9	0	0	---	0.00	30.062 
04:20	34.3	34.3	34.3	74	26.9	0	0	---	0.00	30.062 
04:25	34.0	34.0	34.0	75	26.9	0	0	---	0.00	30.062 
04:30	33.7	33.7	33.7	76	27.0	0	0	---	0.00	30.071 
04:35	33.5	33.5	33.5	77	27.1	0	0	---	0.00	30.071 
04:40	33.4	33.4	33.4	77	27.0	0	0	---	0.00	30.071 
04:45	33.1	33.1	33.1	77	26.7	0	0	---	0.00	30.079 
04:50	32.8	32.8	32.8	78	26.7	0	0	---	0.00	30.079 
04:55	32.5	32.5	32.5	78	26.4	0	0	---	0.00	30.079 
05:00	32.2	32.2	32.2	79	26.4	0	0	---	0.00	30.086 
05:05	31.9	31.9	31.9	80	26.4	0	0	---	0.00	30.086 
05:10	31.6	31.6	31.6	80	26.2	0	0	---	0.00	30.086 
05:15	31.3	31.3	31.3	81	26.2	0	0	---	0.00	30.084 
05:20	31.0	31.0	31.0	81	25.9	0	0	---	0.00	30.084 
05:25	30.7	30.7	30.7	81	25.6	0	0	---	0.00	30.084 
05:30	30.6	30.6	30.6	82	25.8	0	0	---	0.00	30.094 
05:35	30.6	30.6	30.6	83	26.1	0	0	---	0.00	30.094 
05:40	30.6	30.6	30.6	84	26.4	0	0	---	0.00	30.094 
05:45	30.6	30.6	30.6	84	26.4	0	0	---	0.00	30.096 
05:50	30.6	30.6	30.6	85	26.6	0	0	---	0.00	30.096 
05:55	30.4	30.4	30.4	85	26.4	0	0	---	0.00	30.096 
06:00	30.3	30.3	30.3	85	26.3	0	0	---	0.00	30.098 
06:05	30.3	30.3	30.3	85	26.3	0	0	---	0.00	30.098 
06:10	30.1	30.1	30.1	86	26.4	0	0	---	0.00	30.098 
06:15	30.0	30.0	30.0	86	26.3	0	0	---	0.00	30.107 
06:20	30.0	30.0	30.0	86	26.3	0	0	---	0.00	30.107 
06:25	30.0	30.0	30.0	86	26.3	0	0	---	0.00	30.107 
06:30	29.8	29.8	29.8	86	26.1	0	0	---	0.00	30.114 
06:35	29.7	29.7	29.7	86	26.0	0	0	---	0.00	30.114 
06:40	29.5	29.5	29.5	87	26.1	0	0	---	0.00	30.114 
06:45	29.7	29.7	29.7	87	26.3	0	0	---	0.00	30.126 
06:50	29.5	29.5	29.5	87	26.1	0	0	---	0.00	30.126 
06:55	29.7	29.7	29.7	87	26.3	0	0	---	0.00	30.126 
07:00	29.7	29.7	29.7	87	26.3	0	0	---	0.00	30.130 
07:05	29.7	29.7	29.7	87	26.3	0	0	---	0.00	30.130 
07:10	29.5	29.5	29.5	87	26.1	0	0	---	0.00	30.130 
07:15	29.5	29.5	29.5	88	26.4	0	0	---	0.00	30.145 
07:20	29.5	29.5	29.5	88	26.4	0	0	---	0.00	30.145 
07:25	29.7	29.7	29.7	88	26.6	0	0	---	0.00	30.145 
07:30	29.8	29.8	29.8	88	26.7	0	0	---	0.00	30.147 
07:35	30.4	30.4	30.4	89	27.6	0	0	---	0.00	30.147 
07:40	30.9	30.9	30.9	88	27.8	0	0	---	0.00	30.147 
07:45	31.8	31.8	31.8	89	28.9	0	1	248	0.00	30.147 
07:50	32.8	32.8	32.8	88	29.6	0	0	---	0.00	30.147 
07:55	34.0	34.0	34.0	86	30.3	0	1	248	0.00	30.147 
08:00	35.3	35.3	35.3	85	31.2	0	0	---	0.00	30.148 
08:05	36.3	36.3	36.3	84	31.9	0	0	---	0.00	30.148 
08:10	37.2	37.2	37.2	82	32.2	0	0	---	0.00	30.148 
08:15	38.0	38.0	38.0	78	31.8	0	0	---	0.00	30.158 
08:20	39.2	39.2	39.2	75	32.0	0	0	---	0.00	30.158 
08:25	40.3	40.3	40.3	72	32.0	0	1	248	0.00	30.158 
08:30	41.6	41.6	41.6	68	31.8	0	0	---	0.00	30.157 
08:35	42.5	42.5	42.5	65	31.6	0	0	---	0.00	30.157 
08:40	43.8	43.8	43.8	62	31.6	0	2	248	0.00	30.157 
08:45	44.3	44.3	44.3	59	30.9	1	3	248	0.00	30.156 
08:50	44.3	44.3	44.3	57	30.0	0	2	248	0.00	30.156 
08:55	44.6	44.6	44.6	56	29.9	0	2	248	0.00	30.156 
09:00	44.5	44.5	44.5	54	28.9	0	1	248	0.00	30.158 
09:05	44.9	44.9	44.9	54	29.3	0	3	248	0.00	30.158 
09:10	45.1	45.1	45.1	50	27.6	2	5	90	0.00	30.158 
09:15	45.1	45.1	45.1	52	28.5	1	4	112	0.00	30.161 
09:20	45.4	45.4	45.4	51	28.3	1	3	112	0.00	30.161 
09:25	45.7	45.7	45.7	50	28.1	2	5	90	0.00	30.161 
09:30	45.8	45.8	45.8	50	28.2	1	3	90	0.00	30.167 
09:35	45.8	45.8	45.8	50	28.2	1	4	90	0.00	30.167 
09:40	46.0	46.0	46.0	51	28.9	1	3	112	0.00	30.167 
09:45	46.2	46.2	46.2	54	30.5	0	3	112	0.00	30.175 
09:50	46.8	46.8	46.8	52	30.1	1	3	112	0.00	30.175 
09:55	47.3	47.3	47.3	47	28.1	2	3	112	0.00	30.175 
10:00	47.6	47.6	47.6	46	27.9	0	2	112	0.00	30.176 
10:05	47.7	47.7	47.7	47	28.5	2	4	112	0.00	30.176 
10:10	48.0	48.0	48.0	45	27.7	1	3	112	0.00	30.176 
10:15	48.5	48.5	48.5	48	29.7	1	2	112	0.00	30.182 
10:20	48.8	48.8	48.8	46	28.9	1	4	90	0.00	30.182 
10:25	48.8	48.8	48.8	47	29.5	1	2	90	0.00	30.182 
10:30	48.5	48.5	48.5	46	28.7	1	3	68	0.00	30.183 
10:35	48.6	48.6	48.6	46	28.8	1	2	292	0.00	30.183 
10:40	49.4	49.4	49.4	48	30.5	1	5	90	0.00	30.183 
10:45	50.1	50.1	50.1	49	31.7	0	3	68	0.00	30.190 
10:50	49.8	49.8	49.8	46	29.9	1	5	248	0.00	30.190 
10:55	50.2	50.2	50.2	44	29.1	1	3	90	0.00	30.190 
11:00	51.0	51.0	51.0	45	30.4	2	5	112	0.00	30.190 
11:05	51.3	51.3	51.3	41	28.4	2	4	112	0.00	30.190 
11:10	51.7	51.7	51.7	44	30.5	1	3	112	0.00	30.190 
11:15	52.3	52.3	52.3	41	29.3	2	6	112	0.00	30.199 
11:20	52.5	52.5	52.5	40	28.9	2	5	112	0.00	30.199 
11:25	52.2	52.2	52.2	41	29.2	1	4	292	0.00	30.199 
11:30	52.2	52.2	52.2	40	28.6	2	5	112	0.00	30.193 
11:35	52.5	52.5	52.5	39	28.3	2	4	112	0.00	30.193 
11:40	52.8	52.8	52.8	35	25.9	2	5	112	0.00	30.193 
11:45	52.9	52.9	52.9	35	26.0	2	4	112	0.00	30.193 
11:50	53.3	53.3	53.3	39	29.0	1	4	90	0.00	30.193 
11:55	53.2	53.2	53.2	34	25.6	1	6	90	0.00	30.193 
12:00	53.1	53.1	53.1	40	29.4	1	4	90	0.00	30.199 
12:05	53.2	53.2	53.2	32	24.1	1	3	248	0.00	30.199 
12:10	53.5	53.5	53.5	40	29.8	1	4	248	0.00	30.199 
12:15	54.1	54.1	54.1	37	28.4	1	4	90	0.00	30.200 
12:20	54.7	54.7	54.7	41	31.5	2	4	112	0.00	30.200 
12:25	55.0	55.0	55.0	39	30.5	1	5	112	0.00	30.200 
12:30	54.2	54.2	54.2	36	27.8	2	4	248	0.00	30.191 
12:35	54.5	54.5	54.5	37	28.8	1	5	112	0.00	30.191 
12:40	55.1	55.1	55.1	40	31.2	1	3	135	0.00	30.191 
12:45	55.3	55.3	55.3	41	32.0	3	7	90	0.00	30.184 
12:50	55.1	55.1	55.1	37	29.3	2	6	45	0.00	30.184 
12:55	55.4	55.4	55.4	39	30.9	2	9	90	0.00	30.184 
13:00	55.4	55.4	55.4	37	29.6	1	5	270	0.00	30.173 
13:05	56.0	56.0	56.0	43	33.8	2	5	90	0.00	30.173 
13:10	56.5	56.5	56.5	34	28.5	3	6	112	0.00	30.173 
13:15	55.9	55.9	55.9	31	25.7	3	7	112	0.00	30.163 
13:20	56.2	56.2	56.2	33	27.5	2	6	68	0.00	30.163 
13:25	56.7	56.7	56.7	32	27.2	2	6	90	0.00	30.163 
13:30	56.9	56.9	56.9	35	29.5	2	5	68	0.00	30.153 
13:35	57.2	57.2	57.2	31	26.8	3	6	90	0.00	30.153 
13:40	57.2	57.2	57.2	32	27.6	3	7	112	0.00	30.153 
13:45	56.7	56.7	56.7	30	25.6	4	10	112	0.00	30.146 
13:50	56.7	56.7	56.7	33	27.9	3	6	112	0.00	30.146 
13:55	57.0	57.0	57.0	31	26.7	3	8	90	0.00	30.146 
14:00	57.5	57.5	57.5	32	27.9	2	5	90	0.00	30.151 
14:05	58.4	58.4	58.4	34	30.1	1	5	315	0.00	30.151 
14:10	58.9	58.9	58.9	31	28.3	2	4	292	0.00	30.151 
14:15	59.3	59.3	59.3	29	27.1	1	5	270	0.00	30.166 
14:20	59.3	59.3	59.3	31	28.7	2	6	270	0.00	30.166 
14:25	59.3	59.3	59.3	34	30.9	2	6	90	0.00	30.166 
14:30	59.5	59.5	59.5	30	28.0	2	5	248	0.00	30.167 
14:35	59.8	59.8	59.8	31	29.1	2	4	112	0.00	30.167 
14:40	60.1	60.1	60.1	29	27.7	3	7	112	0.00	30.167 
14:45	59.8	59.8	59.8	27	25.8	2	7	112	0.00	30.153 
14:50	59.9	59.9	59.9	33	30.7	2	6	90	0.00	30.153 
14:55	60.4	60.4	60.4	32	30.4	2	5	90	0.00	30.153 
15:00	60.7	60.7	60.7	29	28.3	3	7	112	0.00	30.126 
15:05	60.2	60.2	60.2	27	26.1	2	6	112	0.00	30.126 
15:10	60.5	60.5	60.5	27	26.4	3	6	112	0.00	30.126 
15:15	60.7	60.7	60.7	26	25.6	2	4	90	0.00	30.136 
15:20	61.2	61.2	61.2	27	27.0	2	5	112	0.00	30.136 
15:25	61.5	61.5	61.5	31	30.6	1	4	112	0.00	30.136 
15:30	62.0	62.0	62.0	27	27.6	2	4	90	0.00	30.138 
15:35	62.3	62.3	62.3	27	27.9	2	5	112	0.00	30.138 
15:40	62.3	62.3	62.3	26	27.0	2	4	135	0.00	30.138 
15:45	62.4	62.4	62.4	27	28.0	1	4	90	0.00	30.136 
15:50	62.4	62.4	62.4	25	26.1	2	5	112	0.00	30.136 
15:55	62.3	62.3	62.3	25	26.0	3	6	112	0.00	30.136 
16:00	62.3	62.3	62.3	28	28.8	3	7	90	0.00	30.133 
16:05	62.1	62.1	62.1	25	25.9	3	10	90	0.00	30.133 
16:10	62.3	62.3	62.3	28	28.8	2	10	135	0.00	30.133 
16:15	62.4	62.4	62.4	28	28.9	2	5	68	0.00	30.128 
16:20	62.6	62.6	62.6	24	25.3	3	9	90	0.00	30.128 
16:25	62.6	62.6	62.6	26	27.2	2	7	90	0.00	30.128 
16:30	62.7	62.7	62.7	27	28.2	3	8	90	0.00	30.109 
16:35	62.9	62.9	62.9	25	26.5	2	9	68	0.00	30.109 
16:40	62.9	62.9	62.9	24	25.6	2	8	135	0.00	30.109 
16:45	63.1	63.1	63.1	26	27.7	2	5	112	0.00	30.105 
16:50	63.2	63.2	63.2	25	26.8	2	5	112	0.00	30.105 
16:55	63.2	63.2	63.2	24	25.8	2	7	112	0.00	30.105 
17:00	63.2	63.2	63.2	25	26.8	2	5	90	0.00	30.096 
17:05	63.4	63.4	63.4	25	27.0	2	4	68	0.00	30.096 
17:10	63.5	63.5	63.5	25	27.1	2	5	112	0.00	30.096 
17:15	63.4	63.4	63.4	25	27.0	2	8	135	0.00	30.092 
17:20	63.1	63.1	63.1	24	25.7	3	6	90	0.00	30.092 
17:25	62.7	62.7	62.7	26	27.3	2	7	90	0.00	30.092 
17:30	62.4	62.4	62.4	25	26.1	3	10	112	0.00	30.077 
17:35	62.1	62.1	62.1	27	27.7	3	7	112	0.00	30.077 
17:40	62.4	62.4	62.4	27	28.0	1	4	112	0.00	30.077 
17:45	62.4	62.4	62.4	26	27.1	2	7	112	0.00	30.077 
17:50	62.3	62.3	62.3	28	28.8	1	4	112	0.00	30.077 
17:55	62.1	62.1	62.1	26	26.8	1	5	112	0.00	30.077 
18:00	62.0	62.0	62.0	27	27.6	1	5	112	0.00	30.079 
18:05	62.0	62.0	62.0	28	28.5	1	7	112	0.00	30.079 
18:10	61.8	61.8	61.8	27	27.5	2	6	90	0.00	30.079 
18:15	62.0	62.0	62.0	28	28.5	2	5	90	0.00	30.082 
18:20	62.0	62.0	62.0	27	27.6	1	3	90	0.00	30.082 
18:25	62.1	62.1	62.1	27	27.7	1	3	135	0.00	30.082 
18:30	62.1	62.1	62.1	27	27.7	1	4	90	0.00	30.090 
18:35	62.1	62.1	62.1	29	29.5	1	3	112	0.00	30.090 
18:40	62.1	62.1	62.1	28	28.6	2	6	112	0.00	30.090 
18:45	62.1	62.1	62.1	29	29.5	2	4	68	0.00	30.087 
18:50	62.0	62.0	62.0	28	28.5	2	5	90	0.00	30.087 
18:55	62.0	62.0	62.0	27	27.6	2	5	90	0.00	30.087 
19:00	61.8	61.8	61.8	27	27.5	2	6	135	0.00	30.086 
19:05	61.8	61.8	61.8	30	30.0	1	3	112	0.00	30.086 
19:10	61.8	61.8	61.8	28	28.4	1	5	90	0.00	30.086 
19:15	61.8	61.8	61.8	28	28.4	1	3	112	0.00	30.077 
19:20	61.6	61.6	61.6	29	29.0	1	4	90	0.00	30.077 
19:25	61.5	61.5	61.5	29	29.0	1	3	68	0.00	30.077 
19:30	61.3	61.3	61.3	31	30.4	1	4	112	0.00	30.073 
19:35	61.3	61.3	61.3	31	30.4	1	4	112	0.00	30.073 
19:40	61.2	61.2	61.2	33	31.9	1	2	112	0.00	30.073 
19:45	60.9	60.9	60.9	33	31.6	1	2	112	0.00	30.066 
19:50	60.7	60.7	60.7	33	31.4	1	4	112	0.00	30.066 
19:55	60.5	60.5	60.5	33	31.3	1	4	112	0.00	30.066 
20:00	60.5	60.5	60.5	33	31.3	2	5	112	0.00	30.054 
20:05	60.4	60.4	60.4	33	31.2	2	4	112	0.00	30.054 
20:10	60.2	60.2	60.2	34	31.7	1	4	112	0.00	30.054 
20:15	60.1	60.1	60.1	36	33.1	0	2	112	0.00	30.054 
20:20	59.8	59.8	59.8	36	32.8	0	1	112	0.00	30.054 
20:25	59.5	59.5	59.5	37	33.2	1	2	158	0.00	30.054 
20:30	59.2	59.2	59.2	37	32.9	1	4	112	0.00	30.039 
20:35	59.0	59.0	59.0	36	32.1	1	4	90	0.00	30.039 
20:40	58.9	58.9	58.9	37	32.7	0	2	112	0.00	30.039 
20:45	58.6	58.6	58.6	38	33.1	1	5	112	0.00	30.040 
20:50	58.4	58.4	58.4	39	33.5	1	4	112	0.00	30.040 
20:55	58.3	58.3	58.3	39	33.5	1	5	135	0.00	30.040 
21:00	58.1	58.1	58.1	39	33.3	2	5	112	0.00	30.035 
21:05	58.1	58.1	58.1	38	32.6	2	5	112	0.00	30.035 
21:10	58.3	58.3	58.3	39	33.5	2	4	112	0.00	30.035 
21:15	58.1	58.1	58.1	38	32.6	1	5	135	0.00	30.031 
21:20	58.1	58.1	58.1	39	33.3	1	5	135	0.00	30.031 
21:25	58.0	58.0	58.0	39	33.2	1	4	112	0.00	30.031 
21:30	57.6	57.6	57.6	40	33.5	1	3	135	0.00	30.046 
21:35	57.5	57.5	57.5	40	33.4	1	3	135	0.00	30.046 
21:40	57.3	57.3	57.3	40	33.2	1	3	112	0.00	30.046 
21:45	57.2	57.2	57.2	41	33.7	1	3	112	0.00	30.047 
21:50	57.0	57.0	57.0	42	34.1	1	4	112	0.00	30.047 
21:55	56.9	56.9	56.9	43	34.6	1	3	112	0.00	30.047 
22:00	56.7	56.7	56.7	43	34.5	1	3	112	0.00	30.036 
22:05	56.6	56.6	56.6	43	34.4	1	2	135	0.00	30.036 
22:10	56.5	56.5	56.5	44	34.9	1	3	112	0.00	30.036 
22:15	56.5	56.5	56.5	44	34.9	1	3	112	0.00	30.030 
22:20	56.3	56.3	56.3	45	35.2	1	4	112	0.00	30.030 
22:25	56.3	56.3	56.3	45	35.2	1	6	112	0.00	30.030 
22:30	56.2	56.2	56.2	45	35.1	1	4	112	0.00	30.018 
22:35	56.2	56.2	56.2	45	35.1	2	4	112	0.00	30.018 
22:40	56.2	56.2	56.2	44	34.6	2	5	90	0.00	30.018 
22:45	56.5	56.5	56.5	44	34.9	1	4	90	0.00	30.008 
22:50	56.5	56.5	56.5	44	34.9	1	3	90	0.00	30.008 
22:55	56.5	56.5	56.5	44	34.9	1	4	135	0.00	30.008 
23:00	56.5	56.5	56.5	45	35.4	1	4	135	0.00	30.016 
23:05	56.3	56.3	56.3	45	35.2	0	2	135	0.00	30.016 
23:10	56.3	56.3	56.3	45	35.2	1	2	135	0.00	30.016 
23:15	56.2	56.2	56.2	46	35.7	0	2	158	0.00	30.022 
23:20	56.0	56.0	56.0	46	35.5	1	3	158	0.00	30.022 
23:25	55.9	55.9	55.9	47	36.0	1	4	112	0.00	30.022 
23:30	55.6	55.6	55.6	47	35.7	1	4	112	0.00	30.014 
23:35	55.4	55.4	55.4	48	36.0	1	2	112	0.00	30.014 
23:40	55.4	55.4	55.4	48	36.0	0	2	135	0.00	30.014 
23:45	55.3	55.3	55.3	48	35.9	0	2	135	0.00	30.014 
23:50	55.3	55.3	55.3	48	35.9	0	4	135	0.00	30.014 
23:55	55.4	55.4	55.4	48	36.0	1	3	112	0.00	30.014 

CoCoRaHS
IN-AL-39
A2 Web Hosting
Creative Commons License
GoDaddy
search engine by freefind advanced

loaded 2018-11-16 10:35:49 • last modified 2010-11-18 10:43:29
Privacy PolicyDisclaimer
• wx.awcolley.com is powered by PmWiki v.2002016 •
• all content (unless otherwise noted) © 2018 A W Colley